createdAt,value
2018-07-19T00:00:24.273Z,20.19
2018-07-19T00:01:51.927Z,20.19
2018-07-19T00:03:19.168Z,20.15
2018-07-19T00:04:47.476Z,20.11
2018-07-19T00:06:14.020Z,20.04
2018-07-19T00:07:41.289Z,20.04
2018-07-19T00:09:09.521Z,19.98
2018-07-19T00:10:37.121Z,19.89
2018-07-19T00:12:03.166Z,19.83
2018-07-19T00:13:31.542Z,19.81
2018-07-19T00:14:57.947Z,19.80
2018-07-19T00:16:26.495Z,19.75
2018-07-19T00:17:52.738Z,19.77
2018-07-19T00:19:20.257Z,19.79
2018-07-19T00:20:47.867Z,19.82
2018-07-19T00:22:15.362Z,19.86
2018-07-19T00:23:43.826Z,19.85
2018-07-19T00:25:11.416Z,19.80
2018-07-19T00:26:38.874Z,19.78
2018-07-19T00:28:06.447Z,19.78
2018-07-19T00:29:32.769Z,19.77
2018-07-19T00:31:01.366Z,19.78
2018-07-19T00:32:28.320Z,19.73
2018-07-19T00:33:55.574Z,19.72
2018-07-19T00:35:21.763Z,19.71
2018-07-19T00:36:49.171Z,19.70
2018-07-19T00:38:17.348Z,19.69
2018-07-19T00:39:44.957Z,19.68
2018-07-19T00:41:11.449Z,19.67
2018-07-19T00:42:39.875Z,19.68
2018-07-19T00:44:07.098Z,19.68
2018-07-19T00:45:33.262Z,19.70
2018-07-19T00:47:01.645Z,19.69
2018-07-19T00:48:27.925Z,19.70
2018-07-19T00:49:55.288Z,19.67
2018-07-19T00:51:23.743Z,19.66
2018-07-19T00:52:50.218Z,19.68
2018-07-19T00:54:18.568Z,19.71
2018-07-19T00:55:44.687Z,19.72
2018-07-19T00:57:12.192Z,19.75
2018-07-19T00:58:39.824Z,19.78
2018-07-19T01:00:06.899Z,19.81
2018-07-19T01:01:34.434Z,19.85
2018-07-19T01:03:02.695Z,19.88
2018-07-19T01:04:29.018Z,19.92
2018-07-19T01:05:56.539Z,19.91
2018-07-19T01:07:24.004Z,19.92
2018-07-19T01:08:51.268Z,19.92
2018-07-19T01:10:19.688Z,19.93
2018-07-19T01:11:47.150Z,19.92
2018-07-19T01:13:14.503Z,19.92
2018-07-19T01:14:40.376Z,19.90
2018-07-19T01:16:08.739Z,19.91
2018-07-19T01:17:35.176Z,19.91
2018-07-19T01:19:03.602Z,19.90
2018-07-19T01:20:31.132Z,19.85
2018-07-19T01:22:03.473Z,19.79
2018-07-19T01:23:25.178Z,19.78
2018-07-19T01:24:52.185Z,19.79
2018-07-19T01:26:19.585Z,19.80
2018-07-19T01:27:46.878Z,19.82
2018-07-19T01:29:15.402Z,19.82
2018-07-19T01:30:42.586Z,19.78
2018-07-19T01:32:09.056Z,19.78
2018-07-19T01:33:36.271Z,19.79
2018-07-19T01:35:04.511Z,19.81
2018-07-19T01:36:30.701Z,19.81
2018-07-19T01:37:58.511Z,19.81
2018-07-19T01:39:26.923Z,19.82
2018-07-19T01:40:54.527Z,19.85
2018-07-19T01:42:20.757Z,19.88
2018-07-19T01:43:48.196Z,19.89
2018-07-19T01:45:15.740Z,19.92
2018-07-19T01:46:43.911Z,19.95
2018-07-19T01:48:10.418Z,19.98
2018-07-19T01:49:37.707Z,20.01
2018-07-19T01:51:06.029Z,20.04
2018-07-19T01:52:32.298Z,20.06
2018-07-19T01:54:00.556Z,20.10
2018-07-19T01:55:27.025Z,20.13
2018-07-19T01:56:54.373Z,20.13
2018-07-19T01:58:21.702Z,20.15
2018-07-19T01:59:48.644Z,20.18
2018-07-19T02:01:17.024Z,20.20
2018-07-19T02:02:43.428Z,20.21
2018-07-19T02:04:10.852Z,20.23
2018-07-19T02:05:39.569Z,20.24
2018-07-19T02:07:07.184Z,20.25
2018-07-19T02:08:34.466Z,20.27
2018-07-19T02:10:01.883Z,20.29
2018-07-19T02:11:28.066Z,20.31
2018-07-19T02:12:55.436Z,20.29
2018-07-19T02:14:22.887Z,20.28
2018-07-19T02:15:51.138Z,20.27
2018-07-19T02:17:18.676Z,20.26
2018-07-19T02:18:46.211Z,20.22
2018-07-19T02:20:12.637Z,20.20
2018-07-19T02:21:41.026Z,20.20
2018-07-19T02:23:07.136Z,20.20
2018-07-19T02:24:34.622Z,20.18
2018-07-19T02:26:01.959Z,20.19
2018-07-19T02:27:29.099Z,20.19
2018-07-19T02:28:57.592Z,20.18
2018-07-19T02:30:24.043Z,20.18
2018-07-19T02:31:51.352Z,20.16
2018-07-19T02:33:19.461Z,20.17
2018-07-19T02:34:45.482Z,20.16
2018-07-19T02:36:12.489Z,20.17
2018-07-19T02:37:39.889Z,20.18
2018-07-19T02:39:08.044Z,20.16
2018-07-19T02:40:34.015Z,20.14
2018-07-19T02:42:01.493Z,20.12
2018-07-19T02:43:29.056Z,20.12
2018-07-19T02:44:57.396Z,20.13
2018-07-19T02:46:23.722Z,20.08
2018-07-19T02:47:52.208Z,20.07
2018-07-19T02:49:19.690Z,20.07
2018-07-19T02:50:45.742Z,20.07
2018-07-19T02:52:13.094Z,20.07
2018-07-19T02:53:41.456Z,20.04
2018-07-19T02:55:07.836Z,20.01
2018-07-19T02:56:35.118Z,19.99
2018-07-19T02:58:03.565Z,19.97
2018-07-19T02:59:30.929Z,19.95
2018-07-19T03:00:57.501Z,19.94
2018-07-19T03:02:24.962Z,19.91
2018-07-19T03:03:53.275Z,19.85
2018-07-19T03:05:19.604Z,19.82
2018-07-19T03:06:46.532Z,19.79
2018-07-19T03:08:15.134Z,19.73
2018-07-19T03:09:41.396Z,19.70
2018-07-19T03:11:09.913Z,19.69
2018-07-19T03:12:36.302Z,19.69
2018-07-19T03:14:03.566Z,19.70
2018-07-19T03:15:31.915Z,19.71
2018-07-19T03:16:58.466Z,19.73
2018-07-19T03:18:25.724Z,19.72
2018-07-19T03:19:53.104Z,19.73
2018-07-19T03:21:21.160Z,19.71
2018-07-19T03:22:47.727Z,19.69
2018-07-19T03:24:14.842Z,19.68
2018-07-19T03:25:43.215Z,19.67
2018-07-19T03:27:09.557Z,19.65
2018-07-19T03:28:37.284Z,19.65
2018-07-19T03:30:05.270Z,19.63
2018-07-19T03:31:31.554Z,19.63
2018-07-19T03:32:59.039Z,19.63
2018-07-19T03:34:27.221Z,19.61
2018-07-19T03:35:53.778Z,19.62
2018-07-19T03:37:22.311Z,19.59
2018-07-19T03:38:48.613Z,19.59
2018-07-19T03:40:17.022Z,19.58
2018-07-19T03:41:43.352Z,19.56
2018-07-19T03:43:10.666Z,19.51
2018-07-19T03:44:39.292Z,19.49
2018-07-19T03:46:06.520Z,19.49
2018-07-19T03:47:32.685Z,19.47
2018-07-19T03:49:00.891Z,19.48
2018-07-19T03:50:28.239Z,19.46
2018-07-19T03:51:54.638Z,19.43
2018-07-19T03:53:22.112Z,19.44
2018-07-19T03:54:50.198Z,19.40
2018-07-19T03:56:16.868Z,19.40
2018-07-19T03:57:45.368Z,19.41
2018-07-19T03:59:12.346Z,19.43
2018-07-19T04:00:38.760Z,19.41
2018-07-19T04:02:06.008Z,19.41
2018-07-19T04:03:39.402Z,19.42
2018-07-19T04:05:00.670Z,19.47
2018-07-19T04:06:27.972Z,19.49
2018-07-19T04:07:55.313Z,19.48
2018-07-19T04:09:23.770Z,19.47
2018-07-19T04:10:51.198Z,19.48
2018-07-19T04:12:17.792Z,19.50
2018-07-19T04:13:45.195Z,19.54
2018-07-19T04:15:12.542Z,19.52
2018-07-19T04:16:39.910Z,19.52
2018-07-19T04:18:07.345Z,19.54
2018-07-19T04:19:34.404Z,19.57
2018-07-19T04:21:01.600Z,19.59
2018-07-19T04:22:28.581Z,19.60
2018-07-19T04:23:56.112Z,19.62
2018-07-19T04:25:23.536Z,19.66
2018-07-19T04:26:52.051Z,19.73
2018-07-19T04:28:19.065Z,19.78
2018-07-19T04:29:45.474Z,19.83
2018-07-19T04:31:14.041Z,19.89
2018-07-19T04:32:40.543Z,19.93
2018-07-19T04:34:08.996Z,19.99
2018-07-19T04:35:36.369Z,20.01
2018-07-19T04:37:02.951Z,20.02
2018-07-19T04:38:29.794Z,20.04
2018-07-19T04:39:56.947Z,20.03
2018-07-19T04:41:24.561Z,20.02
2018-07-19T04:42:52.260Z,19.98
2018-07-19T04:44:19.499Z,19.98
2018-07-19T04:45:47.069Z,19.99
2018-07-19T04:47:14.418Z,19.98
2018-07-19T04:48:41.510Z,19.94
2018-07-19T04:50:08.617Z,19.94
2018-07-19T04:51:36.873Z,19.95
2018-07-19T04:53:04.234Z,19.96
2018-07-19T04:54:30.556Z,19.99
2018-07-19T04:55:58.516Z,19.96
2018-07-19T04:57:25.087Z,19.96
2018-07-19T04:58:52.222Z,19.95
2018-07-19T05:00:19.144Z,19.98
2018-07-19T05:01:46.314Z,20.01
2018-07-19T05:03:14.421Z,20.05
2018-07-19T05:04:41.921Z,20.12
2018-07-19T05:06:08.335Z,20.20
2018-07-19T05:07:35.853Z,20.30
2018-07-19T05:09:03.030Z,20.43
2018-07-19T05:10:31.536Z,20.55
2018-07-19T05:11:58.487Z,20.64
2018-07-19T05:13:25.694Z,20.75
2018-07-19T05:14:51.757Z,20.86
2018-07-19T05:16:19.317Z,20.93
2018-07-19T05:17:46.954Z,20.96
2018-07-19T05:19:14.303Z,20.94
2018-07-19T05:20:41.870Z,20.94
2018-07-19T05:22:09.406Z,20.91
2018-07-19T05:23:37.771Z,20.89
2018-07-19T05:25:03.996Z,20.87
2018-07-19T05:26:31.300Z,20.83
2018-07-19T05:27:58.221Z,20.81
2018-07-19T05:29:26.367Z,20.81
2018-07-19T05:30:52.441Z,20.85
2018-07-19T05:32:20.731Z,20.89
2018-07-19T05:33:47.670Z,20.93
2018-07-19T05:35:14.694Z,21.00
2018-07-19T05:36:41.909Z,21.06
2018-07-19T05:38:09.455Z,21.09
2018-07-19T05:39:35.383Z,21.16
2018-07-19T05:41:03.813Z,21.18
2018-07-19T05:42:29.984Z,21.11
2018-07-19T05:43:57.504Z,21.07
2018-07-19T05:45:25.134Z,21.04
2018-07-19T05:46:52.293Z,21.06
2018-07-19T05:48:20.728Z,21.07
2018-07-19T05:49:48.217Z,21.15
2018-07-19T05:51:15.704Z,21.24
2018-07-19T05:52:42.224Z,21.47
2018-07-19T05:54:09.842Z,21.80
2018-07-19T05:55:38.280Z,22.22
2018-07-19T05:57:04.632Z,22.61
2018-07-19T05:58:33.298Z,23.03
2018-07-19T05:59:59.407Z,23.36
2018-07-19T06:01:26.705Z,23.64
2018-07-19T06:02:54.243Z,23.72
2018-07-19T06:04:21.706Z,23.89
2018-07-19T06:05:49.171Z,23.96
2018-07-19T06:07:17.634Z,24.07
2018-07-19T06:08:44.940Z,24.14
2018-07-19T06:10:12.340Z,24.17
2018-07-19T06:11:38.681Z,24.06
2018-07-19T06:13:06.203Z,23.99
2018-07-19T06:14:33.270Z,24.03
2018-07-19T06:16:00.915Z,23.93
2018-07-19T06:17:28.451Z,23.90
2018-07-19T06:18:56.949Z,24.00
2018-07-19T06:20:24.109Z,24.01
2018-07-19T06:21:50.749Z,24.04
2018-07-19T06:23:18.305Z,24.10
2018-07-19T06:24:45.345Z,24.15
2018-07-19T06:26:13.854Z,24.07
2018-07-19T06:27:41.188Z,24.08
2018-07-19T06:29:08.799Z,24.13
2018-07-19T06:30:34.787Z,24.14
2018-07-19T06:32:03.186Z,24.06
2018-07-19T06:33:30.671Z,24.07
2018-07-19T06:34:57.110Z,24.14
2018-07-19T06:36:25.524Z,24.17
2018-07-19T06:37:51.389Z,24.21
2018-07-19T06:39:19.878Z,24.18
2018-07-19T06:40:46.135Z,24.20
2018-07-19T06:42:13.590Z,24.10
2018-07-19T06:43:42.113Z,24.04
2018-07-19T06:45:08.580Z,23.91
2018-07-19T06:46:35.931Z,23.87
2018-07-19T06:48:03.528Z,23.77
2018-07-19T06:49:31.190Z,23.82
2018-07-19T06:50:59.614Z,23.82
2018-07-19T06:52:26.209Z,23.77
2018-07-19T06:53:54.935Z,23.85
2018-07-19T06:55:21.306Z,23.91
2018-07-19T06:56:48.641Z,24.05
2018-07-19T06:58:16.433Z,24.14
2018-07-19T06:59:44.050Z,24.16
2018-07-19T07:01:11.410Z,24.17
2018-07-19T07:02:38.933Z,24.21
2018-07-19T07:04:06.583Z,24.26
2018-07-19T07:05:35.237Z,24.26
2018-07-19T07:07:02.843Z,24.29
2018-07-19T07:08:28.443Z,24.29
2018-07-19T07:09:56.009Z,24.29
2018-07-19T07:11:23.441Z,24.28
2018-07-19T07:12:51.993Z,24.29
2018-07-19T07:14:19.263Z,24.26
2018-07-19T07:15:45.820Z,24.28
2018-07-19T07:17:14.345Z,24.32
2018-07-19T07:18:40.577Z,24.31
2018-07-19T07:20:07.989Z,24.30
2018-07-19T07:21:35.565Z,24.33
2018-07-19T07:23:02.941Z,24.39
2018-07-19T07:24:30.437Z,24.53
2018-07-19T07:25:58.990Z,24.58
2018-07-19T07:27:25.632Z,24.60
2018-07-19T07:28:53.098Z,24.68
2018-07-19T07:30:21.854Z,24.78
2018-07-19T07:31:48.288Z,24.91
2018-07-19T07:33:15.808Z,24.94
2018-07-19T07:34:43.565Z,24.95
2018-07-19T07:36:10.928Z,24.91
2018-07-19T07:37:38.822Z,24.86
2018-07-19T07:39:05.171Z,24.80
2018-07-19T07:40:32.823Z,24.72
2018-07-19T07:42:00.355Z,24.67
2018-07-19T07:43:27.915Z,24.52
2018-07-19T07:44:54.810Z,24.48
2018-07-19T07:46:22.367Z,24.44
2018-07-19T07:47:49.928Z,24.37
2018-07-19T07:49:17.594Z,24.32
2018-07-19T07:50:45.210Z,24.30
2018-07-19T07:52:12.949Z,24.29
2018-07-19T07:53:40.572Z,24.27
2018-07-19T07:55:08.120Z,24.21
2018-07-19T07:56:35.653Z,24.21
2018-07-19T07:58:04.244Z,24.22
2018-07-19T07:59:30.670Z,24.18
2018-07-19T08:00:58.040Z,24.19
2018-07-19T08:02:25.218Z,24.24
2018-07-19T08:03:52.858Z,24.33
2018-07-19T08:05:21.295Z,24.37
2018-07-19T08:06:47.535Z,24.40
2018-07-19T08:08:15.189Z,24.43
2018-07-19T08:09:43.776Z,24.46
2018-07-19T08:11:10.237Z,24.45
2018-07-19T08:12:37.794Z,24.47
2018-07-19T08:14:06.103Z,24.50
2018-07-19T08:15:33.433Z,24.54
2018-07-19T08:17:01.186Z,24.55
2018-07-19T08:18:27.573Z,24.54
2018-07-19T08:19:55.201Z,24.47
2018-07-19T08:21:22.942Z,24.45
2018-07-19T08:22:50.492Z,24.47
2018-07-19T08:24:18.108Z,24.50
2018-07-19T08:25:46.530Z,24.53
2018-07-19T08:27:13.877Z,24.53
2018-07-19T08:28:40.202Z,24.55
2018-07-19T08:30:07.698Z,24.58
2018-07-19T08:31:35.223Z,24.59
2018-07-19T08:33:02.725Z,24.62
2018-07-19T08:34:29.779Z,24.66
2018-07-19T08:35:57.426Z,24.68
2018-07-19T08:37:25.842Z,24.69
2018-07-19T08:38:53.377Z,24.66
2018-07-19T08:40:20.940Z,24.64
2018-07-19T08:41:48.590Z,24.62
2018-07-19T08:43:14.958Z,24.58
2018-07-19T08:44:42.262Z,24.54
2018-07-19T08:46:09.844Z,24.54
2018-07-19T08:47:38.347Z,24.54
2018-07-19T08:49:05.696Z,24.50
2018-07-19T08:50:33.366Z,24.50
2018-07-19T08:51:59.735Z,24.54
2018-07-19T08:53:27.887Z,24.57
2018-07-19T08:54:55.220Z,24.59
2018-07-19T08:56:22.072Z,24.63
2018-07-19T08:57:50.419Z,24.65
2018-07-19T08:59:17.981Z,24.66
2018-07-19T09:00:44.257Z,24.69
2018-07-19T09:02:11.721Z,24.70
2018-07-19T09:03:39.333Z,24.70
2018-07-19T09:05:06.814Z,24.69
2018-07-19T09:06:34.258Z,24.73
2018-07-19T09:08:01.802Z,24.78
2018-07-19T09:09:29.442Z,24.79
2018-07-19T09:10:57.063Z,24.82
2018-07-19T09:12:25.130Z,24.87
2018-07-19T09:13:51.816Z,24.96
2018-07-19T09:15:19.580Z,25.08
2018-07-19T09:16:48.268Z,25.21
2018-07-19T09:18:15.831Z,25.39
2018-07-19T09:19:42.499Z,25.56
2018-07-19T09:21:10.936Z,25.69
2018-07-19T09:22:37.396Z,25.78
2018-07-19T09:24:05.991Z,25.81
2018-07-19T09:25:32.499Z,25.73
2018-07-19T09:26:59.729Z,25.61
2018-07-19T09:28:27.299Z,25.48
2018-07-19T09:29:54.940Z,25.40
2018-07-19T09:31:22.204Z,25.40
2018-07-19T09:32:50.720Z,25.42
2018-07-19T09:34:17.439Z,25.45
2018-07-19T09:35:46.058Z,25.45
2018-07-19T09:37:13.687Z,25.44
2018-07-19T09:38:40.299Z,25.42
2018-07-19T09:40:07.612Z,25.38
2018-07-19T09:41:35.085Z,25.30
2018-07-19T09:43:02.534Z,25.29
2018-07-19T09:44:31.119Z,25.31
2018-07-19T09:45:57.560Z,25.25
2018-07-19T09:47:25.711Z,25.29
2018-07-19T09:48:51.763Z,25.31
2018-07-19T09:50:19.193Z,25.33
2018-07-19T09:51:47.444Z,25.36
2018-07-19T09:53:14.115Z,25.40
2018-07-19T09:54:41.682Z,25.41
2018-07-19T09:56:08.979Z,25.44
2018-07-19T09:57:37.611Z,25.47
2018-07-19T09:59:04.972Z,25.47
2018-07-19T10:00:31.446Z,25.44
2018-07-19T10:01:58.804Z,25.47
2018-07-19T10:03:26.482Z,25.46
2018-07-19T10:04:54.006Z,25.46
2018-07-19T10:06:22.454Z,25.48
2018-07-19T10:07:50.265Z,25.45
2018-07-19T10:09:16.788Z,25.50
2018-07-19T10:10:45.311Z,25.52
2018-07-19T10:12:11.637Z,25.54
2018-07-19T10:13:40.313Z,25.58
2018-07-19T10:15:06.847Z,25.62
2018-07-19T10:16:35.436Z,25.60
2018-07-19T10:18:01.959Z,25.58
2018-07-19T10:19:29.277Z,25.61
2018-07-19T10:20:56.947Z,25.66
2018-07-19T10:22:23.908Z,25.72
2018-07-19T10:23:51.087Z,25.77
2018-07-19T10:25:19.413Z,25.73
2018-07-19T10:26:45.795Z,25.63
2018-07-19T10:28:14.468Z,25.59
2018-07-19T10:29:41.006Z,25.64
2018-07-19T10:31:09.290Z,25.68
2018-07-19T10:32:35.845Z,25.68
2018-07-19T10:34:03.114Z,25.64
2018-07-19T10:35:30.344Z,25.63
2018-07-19T10:36:58.052Z,25.65
2018-07-19T10:38:25.104Z,25.65
2018-07-19T10:39:53.589Z,25.64
2018-07-19T10:41:20.686Z,25.68
2018-07-19T10:42:47.169Z,25.70
2018-07-19T10:44:14.704Z,25.65
2018-07-19T10:45:41.458Z,25.67
2018-07-19T10:47:09.115Z,25.61
2018-07-19T10:48:37.378Z,25.59
2018-07-19T10:50:03.802Z,25.61
2018-07-19T10:51:30.974Z,25.63
2018-07-19T10:52:57.977Z,25.66
2018-07-19T10:54:25.616Z,25.68
2018-07-19T10:55:52.739Z,25.72
2018-07-19T10:57:21.044Z,25.81
2018-07-19T10:58:47.467Z,25.87
2018-07-19T11:00:15.638Z,25.95
2018-07-19T11:01:43.215Z,26.03
2018-07-19T11:03:09.560Z,26.13
2018-07-19T11:04:36.490Z,26.24
2018-07-19T11:06:03.925Z,26.36
2018-07-19T11:07:32.496Z,26.46
2018-07-19T11:08:59.852Z,26.62
2018-07-19T11:10:26.555Z,26.75
2018-07-19T11:11:54.176Z,26.79
2018-07-19T11:13:20.974Z,26.93
2018-07-19T11:14:48.255Z,27.09
2018-07-19T11:16:16.915Z,27.23
2018-07-19T11:17:44.326Z,27.43
2018-07-19T11:19:11.585Z,27.52
2018-07-19T11:20:39.282Z,27.56
2018-07-19T11:22:05.275Z,27.53
2018-07-19T11:23:32.146Z,27.62
2018-07-19T11:24:59.653Z,27.56
2018-07-19T11:26:27.247Z,27.60
2018-07-19T11:27:55.854Z,27.73
2018-07-19T11:29:22.412Z,27.91
2018-07-19T11:30:50.787Z,27.87
2018-07-19T11:32:17.019Z,27.97
2018-07-19T11:33:44.467Z,28.10
2018-07-19T11:35:12.085Z,28.25
2018-07-19T11:36:38.845Z,28.38
2018-07-19T11:38:07.218Z,28.44
2018-07-19T11:39:33.426Z,28.30
2018-07-19T11:41:01.950Z,28.35
2018-07-19T11:42:29.231Z,28.33
2018-07-19T11:43:55.037Z,28.37
2018-07-19T11:45:23.620Z,28.53
2018-07-19T11:46:49.853Z,28.50
2018-07-19T11:48:18.369Z,28.54
2018-07-19T11:49:45.673Z,28.63
2018-07-19T11:51:11.894Z,28.83
2018-07-19T11:52:39.189Z,29.00
2018-07-19T11:54:07.863Z,29.08
2018-07-19T11:55:34.118Z,29.27
2018-07-19T11:57:01.269Z,29.47
2018-07-19T11:58:29.002Z,29.71
2018-07-19T11:59:56.642Z,29.86
2018-07-19T12:01:23.872Z,29.67
2018-07-19T12:02:51.500Z,29.67
2018-07-19T12:04:19.235Z,29.54
2018-07-19T12:05:46.561Z,29.51
2018-07-19T12:07:14.874Z,29.37
2018-07-19T12:08:41.567Z,29.49
2018-07-19T12:10:09.185Z,29.68
2018-07-19T12:11:36.493Z,29.75
2018-07-19T12:13:04.064Z,29.42
2018-07-19T12:14:31.618Z,29.19
2018-07-19T12:15:59.006Z,28.98
2018-07-19T12:17:26.374Z,29.09
2018-07-19T12:18:55.117Z,29.12
2018-07-19T12:20:21.223Z,29.30
2018-07-19T12:21:49.913Z,29.53
2018-07-19T12:23:16.502Z,29.71
2018-07-19T12:24:43.727Z,29.96
2018-07-19T12:26:11.154Z,30.16
2018-07-19T12:27:38.611Z,30.18
2018-07-19T12:29:06.038Z,30.26
2018-07-19T12:30:33.621Z,30.15
2018-07-19T12:32:00.979Z,30.09
2018-07-19T12:33:28.003Z,30.19
2018-07-19T12:34:56.689Z,30.21
2018-07-19T12:36:24.364Z,30.11
2018-07-19T12:37:50.934Z,30.14
2018-07-19T12:39:18.573Z,30.34
2018-07-19T12:40:47.128Z,30.52
2018-07-19T12:42:13.673Z,30.28
2018-07-19T12:43:41.313Z,30.18
2018-07-19T12:45:08.997Z,30.11
2018-07-19T12:46:36.481Z,30.06
2018-07-19T12:48:04.001Z,30.14
2018-07-19T12:49:31.611Z,30.29
2018-07-19T12:50:59.258Z,30.39
2018-07-19T12:52:26.423Z,30.41
2018-07-19T12:53:54.160Z,30.46
2018-07-19T12:55:22.549Z,30.31
2018-07-19T12:56:49.303Z,30.33
2018-07-19T12:58:18.018Z,30.37
2018-07-19T12:59:44.766Z,30.18
2018-07-19T13:01:13.377Z,30.27
2018-07-19T13:02:39.494Z,30.33
2018-07-19T13:04:06.552Z,30.32
2018-07-19T13:05:33.557Z,29.86
2018-07-19T13:07:00.789Z,29.64
2018-07-19T13:08:28.315Z,29.34
2018-07-19T13:09:57.059Z,29.08
2018-07-19T13:11:23.736Z,28.92
2018-07-19T13:12:51.384Z,28.74
2018-07-19T13:14:19.088Z,28.48
2018-07-19T13:15:46.533Z,28.26
2018-07-19T13:17:14.232Z,28.05
2018-07-19T13:18:42.756Z,27.91
2018-07-19T13:20:09.461Z,27.77
2018-07-19T13:21:36.738Z,27.67
2018-07-19T13:23:04.377Z,27.69
2018-07-19T13:24:32.710Z,27.70
2018-07-19T13:25:58.915Z,27.67
2018-07-19T13:27:27.149Z,27.65
2018-07-19T13:28:53.630Z,27.58
2018-07-19T13:30:21.425Z,27.49
2018-07-19T13:31:49.963Z,27.41
2018-07-19T13:33:17.440Z,27.28
2018-07-19T13:34:43.879Z,27.17
2018-07-19T13:36:11.594Z,27.10
2018-07-19T13:37:38.942Z,27.13
2018-07-19T13:39:06.494Z,27.15
2018-07-19T13:40:34.143Z,27.16
2018-07-19T13:42:01.218Z,27.03
2018-07-19T13:43:29.002Z,26.95
2018-07-19T13:44:56.585Z,26.93
2018-07-19T13:46:24.222Z,26.87
2018-07-19T13:47:51.895Z,26.81
2018-07-19T13:49:19.064Z,26.56
2018-07-19T13:50:47.838Z,26.48
2018-07-19T13:52:14.409Z,26.48
2018-07-19T13:53:41.962Z,26.53
2018-07-19T13:55:09.573Z,26.41
2018-07-19T13:56:37.959Z,26.37
2018-07-19T13:58:03.712Z,26.32
2018-07-19T13:59:31.264Z,26.30
2018-07-19T14:00:58.958Z,26.22
2018-07-19T14:02:26.528Z,26.24
2018-07-19T14:03:55.042Z,26.29
2018-07-19T14:05:21.494Z,26.20
2018-07-19T14:06:50.048Z,26.13
2018-07-19T14:08:17.597Z,25.99
2018-07-19T14:09:45.206Z,25.89
2018-07-19T14:11:11.705Z,25.81
2018-07-19T14:12:39.457Z,25.67
2018-07-19T14:14:07.903Z,25.59
2018-07-19T14:15:34.447Z,25.54
2018-07-19T14:17:01.950Z,25.56
2018-07-19T14:18:29.452Z,25.53
2018-07-19T14:19:57.871Z,25.51
2018-07-19T14:21:25.094Z,25.52
2018-07-19T14:22:51.526Z,25.49
2018-07-19T14:24:19.819Z,25.50
2018-07-19T14:25:46.479Z,25.51
2018-07-19T14:27:23.749Z,25.60
2018-07-19T14:28:51.205Z,25.63
2018-07-19T14:30:19.019Z,25.54
2018-07-19T14:31:47.306Z,25.55
2018-07-19T14:33:13.849Z,25.55
2018-07-19T14:34:42.399Z,25.52
2018-07-19T14:36:08.676Z,25.48
2018-07-19T14:37:37.390Z,25.48
2018-07-19T14:39:03.947Z,25.41
2018-07-19T14:40:32.185Z,25.43
2018-07-19T14:41:59.403Z,25.46
2018-07-19T14:43:26.893Z,25.42
2018-07-19T14:44:54.606Z,25.39
2018-07-19T14:46:22.174Z,25.39
2018-07-19T14:47:48.842Z,25.40
2018-07-19T14:49:16.503Z,25.35
2018-07-19T14:50:44.083Z,25.23
2018-07-19T14:52:11.644Z,25.23
2018-07-19T14:53:39.277Z,25.17
2018-07-19T14:55:06.890Z,25.08
2018-07-19T14:56:35.535Z,25.06
2018-07-19T14:58:02.140Z,25.12
2018-07-19T14:59:30.569Z,25.18
2018-07-19T15:00:57.262Z,25.20
2018-07-19T15:02:25.579Z,25.13
2018-07-19T15:03:52.157Z,25.11
2018-07-19T15:05:19.190Z,25.16
2018-07-19T15:06:46.485Z,25.18
2018-07-19T15:08:14.028Z,25.15
2018-07-19T15:09:41.496Z,25.09
2018-07-19T15:11:08.965Z,25.08
2018-07-19T15:12:37.660Z,25.01
2018-07-19T15:14:04.191Z,24.98
2018-07-19T15:15:31.792Z,24.93
2018-07-19T15:17:00.623Z,24.83
2018-07-19T15:18:27.102Z,24.73
2018-07-19T15:19:54.597Z,24.67
2018-07-19T15:21:22.107Z,24.68
2018-07-19T15:22:49.829Z,24.76
2018-07-19T15:24:17.279Z,24.84
2018-07-19T15:25:46.020Z,24.89
2018-07-19T15:27:13.517Z,24.86
2018-07-19T15:28:40.066Z,24.82
2018-07-19T15:30:07.619Z,24.83
2018-07-19T15:31:35.088Z,24.78
2018-07-19T15:33:02.633Z,24.75
2018-07-19T15:34:31.159Z,24.72
2018-07-19T15:35:57.748Z,24.71
2018-07-19T15:37:25.069Z,24.76
2018-07-19T15:38:53.432Z,24.71
2018-07-19T15:40:19.985Z,24.68
2018-07-19T15:41:47.569Z,24.72
2018-07-19T15:43:16.162Z,24.72
2018-07-19T15:44:42.443Z,24.73
2018-07-19T15:46:10.063Z,24.64
2018-07-19T15:47:37.599Z,24.59
2018-07-19T15:49:06.246Z,24.59
2018-07-19T15:50:32.433Z,24.66
2018-07-19T15:52:02.959Z,24.64
2018-07-19T15:53:27.270Z,24.61
2018-07-19T15:54:54.380Z,24.53
2018-07-19T15:56:22.121Z,24.50
2018-07-19T15:57:49.748Z,24.48
2018-07-19T15:59:17.356Z,24.48
2018-07-19T16:00:44.787Z,24.50
2018-07-19T16:02:13.389Z,24.57
2018-07-19T16:03:39.304Z,24.63
2018-07-19T16:05:07.017Z,24.66
2018-07-19T16:06:35.607Z,24.69
2018-07-19T16:08:01.996Z,24.73
2018-07-19T16:09:29.585Z,24.73
2018-07-19T16:10:56.961Z,24.74
2018-07-19T16:12:24.411Z,24.75
2018-07-19T16:13:52.079Z,24.73
2018-07-19T16:15:19.472Z,24.67
2018-07-19T16:16:48.093Z,24.60
2018-07-19T16:18:14.392Z,24.57
2018-07-19T16:19:42.052Z,24.59
2018-07-19T16:21:10.560Z,24.62
2018-07-19T16:22:37.011Z,24.61
2018-07-19T16:24:04.638Z,24.60
2018-07-19T16:25:33.081Z,24.61
2018-07-19T16:26:58.912Z,24.59
2018-07-19T16:28:27.482Z,24.58
2018-07-19T16:29:53.543Z,24.59
2018-07-19T16:31:22.105Z,24.63
2018-07-19T16:32:48.682Z,24.66
2018-07-19T16:34:17.341Z,24.66
2018-07-19T16:35:43.890Z,24.64
2018-07-19T16:37:11.177Z,24.60
2018-07-19T16:38:38.642Z,24.51
2018-07-19T16:40:06.133Z,24.46
2018-07-19T16:41:33.492Z,24.47
2018-07-19T16:43:02.043Z,24.44
2018-07-19T16:44:28.213Z,24.36
2018-07-19T16:45:55.967Z,24.32
2018-07-19T16:47:23.569Z,24.30
2018-07-19T16:48:51.194Z,24.33
2018-07-19T16:50:18.839Z,24.34
2018-07-19T16:51:46.446Z,24.29
2018-07-19T16:53:14.959Z,24.29
2018-07-19T16:54:42.283Z,24.29
2018-07-19T16:56:08.917Z,24.27
2018-07-19T16:57:36.275Z,24.22
2018-07-19T16:59:04.855Z,24.21
2018-07-19T17:00:31.346Z,24.18
2018-07-19T17:01:59.069Z,24.15
2018-07-19T17:03:26.575Z,24.13
2018-07-19T17:04:54.099Z,24.15
2018-07-19T17:06:21.641Z,24.20
2018-07-19T17:07:50.320Z,24.23
2018-07-19T17:09:16.575Z,24.28
2018-07-19T17:10:43.994Z,24.30
2018-07-19T17:12:11.738Z,24.26
2018-07-19T17:13:39.146Z,24.21
2018-07-19T17:15:06.839Z,24.19
2018-07-19T17:16:34.333Z,24.14
2018-07-19T17:18:01.658Z,24.12
2018-07-19T17:19:29.259Z,24.14
2018-07-19T17:20:56.867Z,24.07
2018-07-19T17:22:24.544Z,24.02
2018-07-19T17:23:51.949Z,24.00
2018-07-19T17:25:19.601Z,24.02
2018-07-19T17:26:47.221Z,24.04
2018-07-19T17:28:14.865Z,24.05
2018-07-19T17:29:43.398Z,24.03
2018-07-19T17:31:10.846Z,23.95
2018-07-19T17:32:37.362Z,23.95
2018-07-19T17:34:05.604Z,23.91
2018-07-19T17:35:32.155Z,23.87
2018-07-19T17:36:59.640Z,23.82
2018-07-19T17:38:28.260Z,23.78
2018-07-19T17:39:54.639Z,23.75
2018-07-19T17:41:22.039Z,23.76
2018-07-19T17:42:50.547Z,23.73
2018-07-19T17:44:17.208Z,23.70
2018-07-19T17:45:44.765Z,23.66
2018-07-19T17:47:12.365Z,23.65
2018-07-19T17:48:39.933Z,23.66
2018-07-19T17:50:07.569Z,23.68
2018-07-19T17:51:34.972Z,23.63
2018-07-19T17:53:02.456Z,23.58
2018-07-19T17:54:30.002Z,23.54
2018-07-19T17:55:57.338Z,23.48
2018-07-19T17:57:25.638Z,23.50
2018-07-19T17:58:53.066Z,23.47
2018-07-19T18:00:19.668Z,23.48
2018-07-19T18:01:46.848Z,23.49
2018-07-19T18:03:14.199Z,23.47
2018-07-19T18:04:41.911Z,23.46
2018-07-19T18:06:09.445Z,23.42
2018-07-19T18:07:37.850Z,23.41
2018-07-19T18:09:04.245Z,23.39
2018-07-19T18:10:32.826Z,23.33
2018-07-19T18:12:00.204Z,23.27
2018-07-19T18:13:26.665Z,23.24
2018-07-19T18:14:54.153Z,23.20
2018-07-19T18:16:21.763Z,23.15
2018-07-19T18:17:49.326Z,23.11
2018-07-19T18:19:17.793Z,23.10
2018-07-19T18:20:44.551Z,23.08
2018-07-19T18:22:11.979Z,23.08
2018-07-19T18:23:39.488Z,23.08
2018-07-19T18:25:07.025Z,23.07
2018-07-19T18:26:34.463Z,23.09
2018-07-19T18:28:02.689Z,23.07
2018-07-19T18:29:29.131Z,23.01
2018-07-19T18:30:57.783Z,22.96
2018-07-19T18:32:25.319Z,22.91
2018-07-19T18:33:51.986Z,22.86
2018-07-19T18:35:19.255Z,22.79
2018-07-19T18:36:46.955Z,22.75
2018-07-19T18:38:14.269Z,22.70
2018-07-19T18:39:41.677Z,22.69
2018-07-19T18:41:09.199Z,22.73
2018-07-19T18:42:36.849Z,22.73
2018-07-19T18:44:04.236Z,22.74
2018-07-19T18:45:31.735Z,22.68